createdAt,value
2022-11-09T00:02:50.481Z,21.47
2022-11-09T00:06:00.028Z,21.50
2022-11-09T00:09:08.160Z,21.48
2022-11-09T00:12:11.796Z,21.47
2022-11-09T00:15:15.543Z,21.47
2022-11-09T00:18:18.981Z,21.47
2022-11-09T00:21:26.070Z,21.49
2022-11-09T00:24:29.603Z,21.47
2022-11-09T00:27:33.323Z,21.48
2022-11-09T00:30:36.720Z,21.49
2022-11-09T00:33:40.708Z,21.48
2022-11-09T00:36:45.525Z,21.50
2022-11-09T00:39:49.119Z,21.49
2022-11-09T00:42:53.108Z,21.48
2022-11-09T00:45:56.795Z,21.47
2022-11-09T00:49:00.302Z,21.48
2022-11-09T00:52:06.118Z,21.48
2022-11-09T00:55:10.535Z,21.47
2022-11-09T00:58:15.011Z,21.47
2022-11-09T01:01:19.083Z,21.47
2022-11-09T01:04:22.725Z,21.47
2022-11-09T01:07:27.495Z,21.48
2022-11-09T01:10:31.390Z,21.47
2022-11-09T01:13:35.167Z,21.47
2022-11-09T01:16:38.893Z,21.47
2022-11-09T01:19:42.378Z,21.48
2022-11-09T01:22:47.871Z,21.48
2022-11-09T01:25:59.573Z,21.50
2022-11-09T01:29:03.418Z,21.47
2022-11-09T01:32:09.408Z,21.47
2022-11-09T01:35:13.262Z,21.47
2022-11-09T01:38:17.982Z,21.48
2022-11-09T01:41:25.502Z,21.47
2022-11-09T01:44:29.544Z,21.45
2022-11-09T01:47:33.950Z,21.45
2022-11-09T01:50:45.565Z,21.48
2022-11-09T01:53:57.466Z,21.47
2022-11-09T01:57:10.387Z,21.47
2022-11-09T02:00:18.081Z,21.45
2022-11-09T02:03:30.405Z,21.47
2022-11-09T02:06:36.983Z,21.44
2022-11-09T02:09:50.488Z,21.45
2022-11-09T02:12:57.714Z,21.44
2022-11-09T02:16:01.848Z,21.44
2022-11-09T02:19:05.893Z,21.42
2022-11-09T02:22:10.602Z,21.44
2022-11-09T02:25:17.173Z,21.42
2022-11-09T02:28:21.755Z,21.42
2022-11-09T02:31:35.715Z,21.43
2022-11-09T02:34:39.200Z,21.41
2022-11-09T02:37:50.622Z,21.43
2022-11-09T02:40:55.066Z,21.39
2022-11-09T02:44:03.040Z,21.39
2022-11-09T02:47:07.885Z,21.39
2022-11-09T02:50:12.151Z,21.38
2022-11-09T02:53:17.197Z,21.38
2022-11-09T02:56:22.704Z,21.36
2022-11-09T02:59:26.371Z,21.36
2022-11-09T03:02:30.484Z,21.36
2022-11-09T03:05:34.176Z,21.38
2022-11-09T03:08:40.083Z,21.38
2022-11-09T03:11:44.591Z,21.37
2022-11-09T03:14:50.756Z,21.34
2022-11-09T03:17:54.370Z,21.36
2022-11-09T03:21:04.021Z,21.37
2022-11-09T03:24:09.356Z,21.37
2022-11-09T03:27:15.924Z,21.34
2022-11-09T03:30:19.801Z,21.36
2022-11-09T03:33:24.426Z,21.33
2022-11-09T03:36:27.941Z,21.33
2022-11-09T03:39:33.583Z,21.34
2022-11-09T03:42:36.995Z,21.32
2022-11-09T03:45:41.919Z,21.32
2022-11-09T03:48:45.334Z,21.33
2022-11-09T03:51:48.933Z,21.34
2022-11-09T03:54:53.852Z,21.34
2022-11-09T03:57:57.446Z,21.32
2022-11-09T04:01:00.783Z,21.34
2022-11-09T04:04:04.525Z,21.36
2022-11-09T04:07:07.994Z,21.36
2022-11-09T04:10:12.915Z,21.38
2022-11-09T04:13:16.385Z,21.38
2022-11-09T04:16:20.059Z,21.37
2022-11-09T04:19:23.494Z,21.37
2022-11-09T04:22:27.353Z,21.38
2022-11-09T04:25:36.258Z,21.42
2022-11-09T04:28:40.346Z,21.39
2022-11-09T04:31:43.836Z,21.39
2022-11-09T04:34:47.285Z,21.40
2022-11-09T04:37:58.594Z,21.44
2022-11-09T04:41:05.340Z,21.42
2022-11-09T04:44:08.782Z,21.41
2022-11-09T04:47:12.370Z,21.41
2022-11-09T04:50:15.916Z,21.41
2022-11-09T04:53:19.384Z,21.40
2022-11-09T04:56:24.255Z,21.44
2022-11-09T04:59:27.803Z,21.45
2022-11-09T05:02:31.096Z,21.48
2022-11-09T05:05:36.410Z,21.50
2022-11-09T05:08:39.766Z,21.51
2022-11-09T05:11:44.752Z,21.52
2022-11-09T05:14:48.194Z,21.52
2022-11-09T05:17:51.824Z,21.51
2022-11-09T05:20:59.452Z,21.51
2022-11-09T05:24:03.114Z,21.53
2022-11-09T05:27:08.039Z,21.81
2022-11-09T05:30:13.125Z,22.12
2022-11-09T05:33:17.504Z,22.36
2022-11-09T05:36:22.235Z,22.53
2022-11-09T05:39:25.740Z,22.63
2022-11-09T05:42:30.758Z,22.73
2022-11-09T05:45:42.748Z,22.79
2022-11-09T05:48:47.617Z,22.85
2022-11-09T05:51:51.024Z,22.91
2022-11-09T05:54:54.637Z,22.95
2022-11-09T05:57:59.316Z,23.01
2022-11-09T06:01:04.491Z,23.01
2022-11-09T06:04:07.994Z,23.05
2022-11-09T06:07:11.660Z,23.07
2022-11-09T06:10:15.023Z,23.09
2022-11-09T06:13:20.300Z,23.13
2022-11-09T06:16:23.726Z,23.14
2022-11-09T06:19:27.457Z,23.16
2022-11-09T06:22:30.974Z,23.17
2022-11-09T06:25:34.660Z,23.18
2022-11-09T06:28:41.552Z,23.21
2022-11-09T06:31:46.307Z,23.19
2022-11-09T06:34:49.861Z,23.19
2022-11-09T06:37:57.585Z,23.22
2022-11-09T06:41:02.314Z,23.22
2022-11-09T06:44:08.001Z,23.23
2022-11-09T06:47:11.211Z,23.23
2022-11-09T06:50:15.335Z,23.24
2022-11-09T06:53:20.198Z,23.25
2022-11-09T06:56:24.075Z,23.26
2022-11-09T06:59:29.006Z,23.29
2022-11-09T07:02:34.607Z,23.30
2022-11-09T07:05:40.167Z,23.32
2022-11-09T07:08:44.091Z,23.30
2022-11-09T07:11:50.077Z,23.34
2022-11-09T07:14:55.126Z,23.33
2022-11-09T07:17:59.621Z,23.33
2022-11-09T07:21:08.844Z,23.34
2022-11-09T07:24:16.501Z,23.32
2022-11-09T07:27:24.834Z,23.33
2022-11-09T07:30:32.076Z,23.34
2022-11-09T07:33:35.968Z,23.33
2022-11-09T07:36:39.344Z,23.34
2022-11-09T07:39:42.858Z,23.35
2022-11-09T07:42:46.471Z,23.36
2022-11-09T07:45:51.442Z,23.38
2022-11-09T07:48:54.858Z,23.36
2022-11-09T07:51:58.652Z,23.37
2022-11-09T07:55:01.946Z,23.36
2022-11-09T07:58:09.709Z,23.38
2022-11-09T08:01:15.390Z,23.41
2022-11-09T08:04:19.192Z,23.38
2022-11-09T08:07:23.605Z,23.38
2022-11-09T08:10:29.640Z,23.39
2022-11-09T08:13:32.899Z,23.39
2022-11-09T08:16:38.217Z,23.41
2022-11-09T08:19:41.468Z,23.41
2022-11-09T08:22:46.360Z,23.41
2022-11-09T08:25:50.364Z,23.41
2022-11-09T08:28:54.256Z,23.40
2022-11-09T08:31:59.334Z,23.42
2022-11-09T08:35:03.801Z,23.40
2022-11-09T08:38:07.263Z,23.41
2022-11-09T08:41:13.605Z,23.40
2022-11-09T08:44:17.276Z,23.41
2022-11-09T08:47:22.515Z,23.42
2022-11-09T08:50:26.348Z,23.41
2022-11-09T08:53:31.333Z,23.41
2022-11-09T08:56:34.457Z,23.42
2022-11-09T08:59:38.530Z,23.42
2022-11-09T09:02:43.368Z,23.45
2022-11-09T09:05:47.193Z,23.43
2022-11-09T09:08:50.604Z,23.44
2022-11-09T09:11:54.624Z,23.44
2022-11-09T09:14:57.906Z,23.44
2022-11-09T09:18:04.381Z,23.44
2022-11-09T09:21:09.399Z,23.44
2022-11-09T09:24:13.267Z,23.42
2022-11-09T09:27:16.721Z,23.42
2022-11-09T09:30:21.272Z,23.44
2022-11-09T09:33:26.657Z,23.44
2022-11-09T09:36:30.688Z,23.43
2022-11-09T09:39:33.945Z,23.43
2022-11-09T09:42:44.556Z,23.45
2022-11-09T09:45:54.820Z,23.45
2022-11-09T09:49:07.186Z,23.44
2022-11-09T09:52:23.001Z,23.45
2022-11-09T09:55:36.936Z,23.44
2022-11-09T09:58:50.117Z,23.43
2022-11-09T10:01:57.330Z,23.42
2022-11-09T10:05:08.254Z,23.43
2022-11-09T10:08:23.046Z,23.42
2022-11-09T10:11:42.890Z,23.44
2022-11-09T10:15:17.014Z,23.45
2022-11-09T10:18:42.787Z,23.43
2022-11-09T10:21:56.130Z,23.42
2022-11-09T10:28:54.334Z,23.39
2022-11-09T10:32:02.444Z,23.41
2022-11-09T10:35:19.759Z,23.43
2022-11-09T10:38:32.966Z,23.42
2022-11-09T10:41:55.458Z,23.40
2022-11-09T10:45:30.569Z,23.41
2022-11-09T10:48:55.684Z,23.40
2022-11-09T10:52:44.250Z,23.45
2022-11-09T10:56:21.172Z,23.40
2022-11-09T10:59:51.422Z,23.41
2022-11-09T11:03:19.401Z,23.42
2022-11-09T11:06:41.782Z,23.39
2022-11-09T11:10:12.814Z,23.43
2022-11-09T11:13:35.956Z,23.41
2022-11-09T11:16:58.777Z,23.41
2022-11-09T11:20:33.681Z,23.45
2022-11-09T11:24:16.369Z,23.45
2022-11-09T11:27:42.648Z,23.41
2022-11-09T11:31:14.242Z,23.42
2022-11-09T11:34:59.238Z,23.41
2022-11-09T11:38:31.548Z,23.40
2022-11-09T11:42:26.386Z,23.44
2022-11-09T11:46:00.614Z,23.40
2022-11-09T11:50:00.254Z,23.44
2022-11-09T11:53:46.300Z,23.41
2022-11-09T11:57:24.061Z,23.41
2022-11-09T12:01:06.248Z,23.42
2022-11-09T12:05:00.750Z,23.45
2022-11-09T12:08:35.580Z,23.42
2022-11-09T12:12:16.228Z,23.45
2022-11-09T12:15:57.229Z,23.45
2022-11-09T12:19:44.485Z,23.44
2022-11-09T12:23:43.976Z,23.45
2022-11-09T12:27:39.488Z,23.45
2022-11-09T12:31:33.258Z,23.39
2022-11-09T12:35:24.498Z,23.44
2022-11-09T12:39:00.361Z,23.41
2022-11-09T12:42:29.234Z,23.38
2022-11-09T12:45:54.897Z,23.39
2022-11-09T12:49:33.742Z,23.42
2022-11-09T12:52:58.299Z,23.40
2022-11-09T12:56:28.073Z,23.40
2022-11-09T12:59:53.362Z,23.40
2022-11-09T13:03:24.667Z,23.42
2022-11-09T13:07:31.908Z,23.44
2022-11-09T13:14:38.178Z,24.47
2022-11-09T13:18:05.954Z,23.78
2022-11-09T13:21:38.502Z,23.63
2022-11-09T13:25:02.678Z,23.52
2022-11-09T13:28:58.747Z,23.54
2022-11-09T13:32:28.787Z,23.48
2022-11-09T13:36:23.687Z,23.50
2022-11-09T13:39:45.929Z,23.41
2022-11-09T13:43:19.305Z,23.44
2022-11-09T13:46:41.991Z,23.40
2022-11-09T13:50:19.472Z,23.43
2022-11-09T13:53:59.102Z,23.45
2022-11-09T13:57:25.791Z,23.39
2022-11-09T14:00:48.751Z,23.40
2022-11-09T14:04:26.330Z,23.43
2022-11-09T14:07:49.987Z,23.38
2022-11-09T14:11:38.358Z,23.41
2022-11-09T14:15:18.038Z,23.39
2022-11-09T14:18:54.946Z,23.38
2022-11-09T14:22:21.241Z,23.36
2022-11-09T14:25:45.746Z,23.36
2022-11-09T14:29:22.176Z,23.39
2022-11-09T14:32:51.517Z,23.38
2022-11-09T14:36:14.821Z,23.37
2022-11-09T14:39:37.436Z,23.37
2022-11-09T14:43:13.271Z,23.38
2022-11-09T14:46:35.728Z,23.37
2022-11-09T14:49:59.324Z,23.35
2022-11-09T14:53:27.621Z,23.37
2022-11-09T14:56:50.668Z,23.35
2022-11-09T15:00:35.061Z,23.39
2022-11-09T15:04:13.663Z,23.38
2022-11-09T15:07:37.894Z,23.32
2022-11-09T15:11:00.496Z,23.31
2022-11-09T15:14:29.643Z,23.33
2022-11-09T15:17:54.263Z,23.31
2022-11-09T15:21:20.331Z,23.30
2022-11-09T15:24:57.100Z,23.33
2022-11-09T15:28:27.267Z,23.29
2022-11-09T15:32:00.456Z,23.34
2022-11-09T15:35:24.940Z,23.31
2022-11-09T15:38:59.697Z,23.34
2022-11-09T15:42:22.441Z,23.30
2022-11-09T15:45:44.545Z,23.31
2022-11-09T15:49:22.133Z,23.34
2022-11-09T15:52:45.611Z,23.29
2022-11-09T15:56:09.922Z,23.28
2022-11-09T15:59:32.256Z,23.30
2022-11-09T16:02:54.501Z,23.29
2022-11-09T16:06:22.383Z,23.28
2022-11-09T16:09:46.170Z,23.29
2022-11-09T16:13:09.805Z,23.27
2022-11-09T16:16:32.433Z,23.27
2022-11-09T16:19:54.315Z,23.27
2022-11-09T16:23:16.987Z,23.26
2022-11-09T16:26:40.278Z,23.27
2022-11-09T16:30:02.759Z,23.26
2022-11-09T16:33:24.786Z,23.25
2022-11-09T16:36:53.803Z,23.26
2022-11-09T16:40:18.738Z,23.25
2022-11-09T16:43:44.159Z,23.27
2022-11-09T16:47:13.503Z,23.26
2022-11-09T16:50:35.457Z,23.25
2022-11-09T16:53:57.249Z,23.23
2022-11-09T16:57:19.640Z,23.24
2022-11-09T17:04:29.084Z,23.21
2022-11-09T17:07:51.148Z,23.22
2022-11-09T17:11:17.461Z,23.23
2022-11-09T17:14:39.625Z,23.21
2022-11-09T17:18:03.035Z,23.23
2022-11-09T17:21:28.155Z,23.22
2022-11-09T17:24:50.056Z,23.20
2022-11-09T17:28:12.079Z,23.21
2022-11-09T17:31:35.073Z,23.21
2022-11-09T17:34:58.659Z,23.20
2022-11-09T17:38:20.894Z,23.20
2022-11-09T17:41:43.497Z,23.20
2022-11-09T17:45:06.524Z,23.21
2022-11-09T17:48:28.384Z,23.19
2022-11-09T17:51:52.078Z,23.20
2022-11-09T17:55:15.481Z,23.18
2022-11-09T17:58:40.806Z,23.20
2022-11-09T18:02:02.666Z,23.18
2022-11-09T18:05:25.025Z,23.18
2022-11-09T18:09:09.550Z,23.18
2022-11-09T18:12:31.888Z,23.16
2022-11-09T18:15:54.050Z,23.17
2022-11-09T18:19:16.260Z,23.17
2022-11-09T18:22:38.094Z,23.17
2022-11-09T18:26:02.710Z,23.18
2022-11-09T18:29:25.365Z,23.16
2022-11-09T18:32:47.629Z,23.17
2022-11-09T18:36:15.056Z,23.18
2022-11-09T18:39:37.301Z,23.16
2022-11-09T18:43:01.158Z,23.17
2022-11-09T18:46:23.828Z,23.16
2022-11-09T18:49:46.213Z,23.16
2022-11-09T18:53:08.392Z,23.17
2022-11-09T18:56:30.511Z,23.16
2022-11-09T18:59:54.075Z,23.16
2022-11-09T19:03:17.086Z,23.16
2022-11-09T19:06:39.771Z,23.16
2022-11-09T19:10:01.964Z,23.16
2022-11-09T19:13:24.422Z,23.19
2022-11-09T19:16:47.825Z,23.22
2022-11-09T19:20:11.909Z,23.22
2022-11-09T19:23:34.816Z,23.24
2022-11-09T19:26:57.422Z,23.26
2022-11-09T19:30:19.665Z,23.28
2022-11-09T19:33:43.518Z,23.31
2022-11-09T19:37:05.386Z,23.32
2022-11-09T19:40:27.545Z,23.32
2022-11-09T19:43:51.071Z,23.33
2022-11-09T21:00:24.556Z,21.84
2022-11-09T21:03:49.041Z,22.06
2022-11-09T21:07:11.295Z,22.26
2022-11-09T21:10:33.489Z,22.44
2022-11-09T21:13:56.839Z,22.59
2022-11-09T21:17:20.979Z,22.71
2022-11-09T21:20:43.727Z,22.81
2022-11-09T21:24:27.149Z,22.92
2022-11-09T21:28:07.309Z,23.00
2022-11-09T21:31:29.726Z,23.08
2022-11-09T21:34:53.141Z,23.16
2022-11-09T21:38:15.198Z,23.18
2022-11-09T21:41:40.479Z,23.18
2022-11-09T21:45:02.880Z,23.21
2022-11-09T21:48:25.181Z,23.22
2022-11-09T21:51:48.985Z,23.26
2022-11-09T21:55:11.191Z,23.27
2022-11-09T21:58:33.892Z,23.30
2022-11-09T22:01:55.933Z,23.37
2022-11-09T22:05:22.823Z,23.44
2022-11-09T22:08:47.461Z,23.46
2022-11-09T22:12:27.295Z,23.46
2022-11-09T22:16:07.544Z,23.46
2022-11-09T22:19:47.511Z,23.48
2022-11-09T22:23:10.267Z,23.48
2022-11-09T22:26:34.034Z,23.50
2022-11-09T22:29:55.818Z,23.48
2022-11-09T22:33:24.454Z,23.46
2022-11-09T22:36:48.879Z,23.46
2022-11-09T22:40:12.051Z,23.46
2022-11-09T22:43:37.107Z,23.48
2022-11-09T22:46:59.526Z,23.46
2022-11-09T22:50:21.740Z,23.45
2022-11-09T22:53:44.664Z,23.44
2022-11-09T22:57:06.429Z,23.46
2022-11-09T23:00:29.558Z,23.46
2022-11-09T23:03:51.561Z,23.41
2022-11-09T23:07:13.508Z,23.38
2022-11-09T23:10:35.588Z,23.38
2022-11-09T23:13:57.585Z,23.41
2022-11-09T23:17:35.026Z,23.42
2022-11-09T23:21:00.473Z,23.41
2022-11-09T23:24:36.125Z,23.39
2022-11-09T23:27:58.802Z,23.36
2022-11-09T23:31:24.531Z,23.37
2022-11-09T23:34:48.346Z,23.36
2022-11-09T23:38:11.544Z,23.34
2022-11-09T23:41:33.557Z,23.33
2022-11-09T23:44:55.916Z,23.33
2022-11-09T23:48:20.477Z,23.33
2022-11-09T23:51:44.045Z,23.33
2022-11-09T23:55:07.190Z,23.31
2022-11-09T23:58:30.091Z,23.31
